sensor_id;sensor_type;location;lat;lon;timestamp;P1;durP1;ratioP1;P2;durP2;ratioP2
39218;SDS011;24934;52.752;6.964;2023-10-09T00:01:42;11.15;;;7.55;;
39218;SDS011;24934;52.752;6.964;2023-10-09T00:04:11;11.55;;;8.00;;
39218;SDS011;24934;52.752;6.964;2023-10-09T00:06:39;10.73;;;8.30;;
39218;SDS011;24934;52.752;6.964;2023-10-09T00:09:08;12.15;;;7.80;;
39218;SDS011;24934;52.752;6.964;2023-10-09T00:11:43;10.57;;;7.72;;
39218;SDS011;24934;52.752;6.964;2023-10-09T00:14:10;10.80;;;8.57;;
39218;SDS011;24934;52.752;6.964;2023-10-09T00:16:36;12.88;;;8.70;;
39218;SDS011;24934;52.752;6.964;2023-10-09T00:19:11;11.60;;;9.05;;
39218;SDS011;24934;52.752;6.964;2023-10-09T00:21:44;11.07;;;8.40;;
39218;SDS011;24934;52.752;6.964;2023-10-09T00:24:10;13.73;;;8.80;;
39218;SDS011;24934;52.752;6.964;2023-10-09T00:26:45;11.35;;;9.05;;
39218;SDS011;24934;52.752;6.964;2023-10-09T00:29:12;11.85;;;9.30;;
39218;SDS011;24934;52.752;6.964;2023-10-09T00:31:41;14.88;;;10.00;;
39218;SDS011;24934;52.752;6.964;2023-10-09T00:34:15;14.10;;;9.90;;
39218;SDS011;24934;52.752;6.964;2023-10-09T00:36:44;13.32;;;9.90;;
39218;SDS011;24934;52.752;6.964;2023-10-09T00:39:20;18.33;;;10.88;;
39218;SDS011;24934;52.752;6.964;2023-10-09T00:42:07;17.13;;;10.18;;
39218;SDS011;24934;52.752;6.964;2023-10-09T00:44:37;15.23;;;11.75;;
39218;SDS011;24934;52.752;6.964;2023-10-09T00:47:10;16.55;;;11.65;;
39218;SDS011;24934;52.752;6.964;2023-10-09T00:49:58;21.27;;;12.55;;
39218;SDS011;24934;52.752;6.964;2023-10-09T00:52:30;19.52;;;12.85;;
39218;SDS011;24934;52.752;6.964;2023-10-09T00:54:58;17.42;;;13.30;;
39218;SDS011;24934;52.752;6.964;2023-10-09T00:57:27;19.25;;;13.82;;
39218;SDS011;24934;52.752;6.964;2023-10-09T00:59:54;21.45;;;13.43;;
39218;SDS011;24934;52.752;6.964;2023-10-09T01:02:32;23.17;;;14.35;;
39218;SDS011;24934;52.752;6.964;2023-10-09T01:05:02;21.77;;;15.00;;
39218;SDS011;24934;52.752;6.964;2023-10-09T01:07:45;23.73;;;14.98;;
39218;SDS011;24934;52.752;6.964;2023-10-09T01:10:11;22.00;;;16.25;;
39218;SDS011;24934;52.752;6.964;2023-10-09T01:12:41;27.05;;;15.93;;
39218;SDS011;24934;52.752;6.964;2023-10-09T01:15:09;27.63;;;17.27;;
39218;SDS011;24934;52.752;6.964;2023-10-09T01:17:45;29.35;;;16.67;;
39218;SDS011;24934;52.752;6.964;2023-10-09T01:20:11;26.20;;;18.08;;
39218;SDS011;24934;52.752;6.964;2023-10-09T01:22:42;28.92;;;17.88;;
39218;SDS011;24934;52.752;6.964;2023-10-09T01:25:08;27.33;;;18.38;;
39218;SDS011;24934;52.752;6.964;2023-10-09T01:27:35;29.50;;;18.27;;
39218;SDS011;24934;52.752;6.964;2023-10-09T01:30:05;30.65;;;19.55;;
39218;SDS011;24934;52.752;6.964;2023-10-09T01:32:35;37.85;;;20.25;;
39218;SDS011;24934;52.752;6.964;2023-10-09T01:35:01;28.15;;;20.30;;
39218;SDS011;24934;52.752;6.964;2023-10-09T01:37:33;33.17;;;21.00;;
39218;SDS011;24934;52.752;6.964;2023-10-09T01:40:02;35.13;;;21.02;;
39218;SDS011;24934;52.752;6.964;2023-10-09T01:42:46;32.13;;;21.33;;
39218;SDS011;24934;52.752;6.964;2023-10-09T01:45:12;33.75;;;21.85;;
39218;SDS011;24934;52.752;6.964;2023-10-09T01:47:41;28.80;;;20.52;;
39218;SDS011;24934;52.752;6.964;2023-10-09T01:50:16;32.53;;;22.38;;
39218;SDS011;24934;52.752;6.964;2023-10-09T01:53:00;36.40;;;22.90;;
39218;SDS011;24934;52.752;6.964;2023-10-09T01:55:27;33.22;;;22.60;;
39218;SDS011;24934;52.752;6.964;2023-10-09T01:58:06;31.88;;;22.35;;
39218;SDS011;24934;52.752;6.964;2023-10-09T02:00:49;34.17;;;22.50;;
39218;SDS011;24934;52.752;6.964;2023-10-09T02:03:22;37.53;;;23.83;;
39218;SDS011;24934;52.752;6.964;2023-10-09T02:05:49;35.58;;;23.75;;
39218;SDS011;24934;52.752;6.964;2023-10-09T02:08:16;35.35;;;24.80;;
39218;SDS011;24934;52.752;6.964;2023-10-09T02:10:47;37.88;;;23.75;;
39218;SDS011;24934;52.752;6.964;2023-10-09T02:13:13;39.38;;;24.30;;
39218;SDS011;24934;52.752;6.964;2023-10-09T02:15:42;35.25;;;24.10;;
39218;SDS011;24934;52.752;6.964;2023-10-09T02:18:09;37.67;;;25.13;;
39218;SDS011;24934;52.752;6.964;2023-10-09T02:21:05;35.65;;;24.63;;
39218;SDS011;24934;52.752;6.964;2023-10-09T02:23:31;42.63;;;25.08;;
39218;SDS011;24934;52.752;6.964;2023-10-09T02:26:12;36.67;;;23.77;;
39218;SDS011;24934;52.752;6.964;2023-10-09T02:28:50;39.15;;;25.20;;
39218;SDS011;24934;52.752;6.964;2023-10-09T02:31:29;40.20;;;25.02;;
39218;SDS011;24934;52.752;6.964;2023-10-09T02:34:05;42.50;;;26.23;;
39218;SDS011;24934;52.752;6.964;2023-10-09T02:36:33;40.20;;;25.42;;
39218;SDS011;24934;52.752;6.964;2023-10-09T02:39:13;38.30;;;25.25;;
39218;SDS011;24934;52.752;6.964;2023-10-09T02:41:51;36.60;;;25.00;;
39218;SDS011;24934;52.752;6.964;2023-10-09T02:44:20;41.85;;;26.67;;
39218;SDS011;24934;52.752;6.964;2023-10-09T02:46:50;42.65;;;25.38;;
39218;SDS011;24934;52.752;6.964;2023-10-09T02:49:16;38.47;;;25.60;;
39218;SDS011;24934;52.752;6.964;2023-10-09T02:51:43;41.30;;;25.17;;
39218;SDS011;24934;52.752;6.964;2023-10-09T02:54:12;39.38;;;25.35;;
39218;SDS011;24934;52.752;6.964;2023-10-09T02:56:45;39.28;;;24.70;;
39218;SDS011;24934;52.752;6.964;2023-10-09T02:59:13;43.40;;;24.83;;
39218;SDS011;24934;52.752;6.964;2023-10-09T03:01:40;43.20;;;26.35;;
39218;SDS011;24934;52.752;6.964;2023-10-09T03:04:06;41.60;;;25.85;;
39218;SDS011;24934;52.752;6.964;2023-10-09T03:06:36;42.70;;;26.58;;
39218;SDS011;24934;52.752;6.964;2023-10-09T03:09:08;40.97;;;25.35;;
39218;SDS011;24934;52.752;6.964;2023-10-09T03:11:57;43.92;;;26.75;;
39218;SDS011;24934;52.752;6.964;2023-10-09T03:14:35;48.45;;;26.50;;
39218;SDS011;24934;52.752;6.964;2023-10-09T03:17:03;41.63;;;26.63;;
39218;SDS011;24934;52.752;6.964;2023-10-09T03:19:32;42.33;;;27.55;;
39218;SDS011;24934;52.752;6.964;2023-10-09T03:22:02;48.05;;;27.23;;
39218;SDS011;24934;52.752;6.964;2023-10-09T03:24:29;50.55;;;27.80;;
39218;SDS011;24934;52.752;6.964;2023-10-09T03:26:57;52.72;;;28.90;;
39218;SDS011;24934;52.752;6.964;2023-10-09T03:29:26;46.83;;;28.27;;
39218;SDS011;24934;52.752;6.964;2023-10-09T03:31:52;48.58;;;28.20;;
39218;SDS011;24934;52.752;6.964;2023-10-09T03:34:20;52.08;;;30.38;;
39218;SDS011;24934;52.752;6.964;2023-10-09T03:36:47;55.47;;;29.42;;
39218;SDS011;24934;52.752;6.964;2023-10-09T03:39:13;52.50;;;29.98;;
39218;SDS011;24934;52.752;6.964;2023-10-09T03:41:58;52.70;;;30.38;;
39218;SDS011;24934;52.752;6.964;2023-10-09T03:44:25;54.53;;;30.83;;
39218;SDS011;24934;52.752;6.964;2023-10-09T03:46:54;51.65;;;32.38;;
39218;SDS011;24934;52.752;6.964;2023-10-09T03:49:20;52.53;;;32.92;;
39218;SDS011;24934;52.752;6.964;2023-10-09T03:51:50;55.53;;;33.00;;
39218;SDS011;24934;52.752;6.964;2023-10-09T03:54:17;64.35;;;33.83;;
39218;SDS011;24934;52.752;6.964;2023-10-09T03:56:46;59.08;;;33.28;;
39218;SDS011;24934;52.752;6.964;2023-10-09T03:59:15;58.15;;;33.13;;
39218;SDS011;24934;52.752;6.964;2023-10-09T04:01:45;68.22;;;34.35;;
39218;SDS011;24934;52.752;6.964;2023-10-09T04:04:12;67.47;;;34.92;;
39218;SDS011;24934;52.752;6.964;2023-10-09T04:06:39;60.63;;;34.30;;
39218;SDS011;24934;52.752;6.964;2023-10-09T04:09:06;66.95;;;36.42;;
39218;SDS011;24934;52.752;6.964;2023-10-09T04:11:48;70.75;;;36.28;;
39218;SDS011;24934;52.752;6.964;2023-10-09T04:14:33;63.47;;;35.92;;
39218;SDS011;24934;52.752;6.964;2023-10-09T04:16:59;75.47;;;37.40;;
39218;SDS011;24934;52.752;6.964;2023-10-09T04:19:30;67.15;;;38.00;;
39218;SDS011;24934;52.752;6.964;2023-10-09T04:22:04;67.03;;;36.45;;
39218;SDS011;24934;52.752;6.964;2023-10-09T04:24:34;67.30;;;36.88;;
39218;SDS011;24934;52.752;6.964;2023-10-09T04:27:18;68.28;;;37.17;;
39218;SDS011;24934;52.752;6.964;2023-10-09T04:29:51;66.82;;;38.33;;
39218;SDS011;24934;52.752;6.964;2023-10-09T04:32:19;74.40;;;39.30;;
39218;SDS011;24934;52.752;6.964;2023-10-09T04:34:50;70.35;;;39.22;;
39218;SDS011;24934;52.752;6.964;2023-10-09T04:37:27;70.47;;;39.53;;
39218;SDS011;24934;52.752;6.964;2023-10-09T04:40:03;81.40;;;41.30;;
39218;SDS011;24934;52.752;6.964;2023-10-09T04:42:58;71.72;;;40.30;;
39218;SDS011;24934;52.752;6.964;2023-10-09T04:45:24;67.57;;;39.80;;
39218;SDS011;24934;52.752;6.964;2023-10-09T04:48:09;75.15;;;41.45;;
39218;SDS011;24934;52.752;6.964;2023-10-09T04:50:35;71.47;;;40.35;;
39218;SDS011;24934;52.752;6.964;2023-10-09T04:53:12;73.82;;;40.47;;
39218;SDS011;24934;52.752;6.964;2023-10-09T04:55:41;78.28;;;41.20;;
39218;SDS011;24934;52.752;6.964;2023-10-09T04:58:19;76.65;;;41.55;;
39218;SDS011;24934;52.752;6.964;2023-10-09T05:00:52;72.65;;;41.85;;
39218;SDS011;24934;52.752;6.964;2023-10-09T05:03:27;80.22;;;43.33;;
39218;SDS011;24934;52.752;6.964;2023-10-09T05:05:54;79.80;;;42.88;;
39218;SDS011;24934;52.752;6.964;2023-10-09T05:08:24;74.13;;;43.67;;
39218;SDS011;24934;52.752;6.964;2023-10-09T05:10:51;86.03;;;45.45;;
39218;SDS011;24934;52.752;6.964;2023-10-09T05:13:23;82.50;;;45.60;;
39218;SDS011;24934;52.752;6.964;2023-10-09T05:18:44;87.50;;;46.60;;
39218;SDS011;24934;52.752;6.964;2023-10-09T05:21:20;80.70;;;44.25;;
39218;SDS011;24934;52.752;6.964;2023-10-09T05:23:55;78.30;;;45.03;;
39218;SDS011;24934;52.752;6.964;2023-10-09T05:26:37;79.93;;;44.83;;
39218;SDS011;24934;52.752;6.964;2023-10-09T05:31:49;83.53;;;45.05;;
39218;SDS011;24934;52.752;6.964;2023-10-09T05:34:22;80.75;;;44.15;;
39218;SDS011;24934;52.752;6.964;2023-10-09T05:36:58;83.00;;;46.75;;
39218;SDS011;24934;52.752;6.964;2023-10-09T05:39:41;81.38;;;44.90;;
39218;SDS011;24934;52.752;6.964;2023-10-09T05:42:08;86.32;;;45.83;;
39218;SDS011;24934;52.752;6.964;2023-10-09T05:44:37;85.50;;;46.05;;
39218;SDS011;24934;52.752;6.964;2023-10-09T05:47:22;88.20;;;46.50;;
39218;SDS011;24934;52.752;6.964;2023-10-09T05:49:54;89.80;;;47.55;;
39218;SDS011;24934;52.752;6.964;2023-10-09T05:52:27;81.57;;;45.90;;
39218;SDS011;24934;52.752;6.964;2023-10-09T05:55:05;85.65;;;47.22;;
39218;SDS011;24934;52.752;6.964;2023-10-09T05:57:34;83.47;;;45.88;;
39218;SDS011;24934;52.752;6.964;2023-10-09T06:00:19;88.80;;;44.97;;
39218;SDS011;24934;52.752;6.964;2023-10-09T06:03:06;75.90;;;43.85;;
39218;SDS011;24934;52.752;6.964;2023-10-09T06:05:51;83.25;;;45.35;;
39218;SDS011;24934;52.752;6.964;2023-10-09T06:08:27;85.65;;;44.58;;
39218;SDS011;24934;52.752;6.964;2023-10-09T06:11:14;88.35;;;46.42;;
39218;SDS011;24934;52.752;6.964;2023-10-09T06:13:59;82.25;;;43.90;;
39218;SDS011;24934;52.752;6.964;2023-10-09T06:16:30;82.32;;;45.42;;
39218;SDS011;24934;52.752;6.964;2023-10-09T06:19:18;82.88;;;45.88;;
39218;SDS011;24934;52.752;6.964;2023-10-09T06:22:08;86.43;;;46.20;;
39218;SDS011;24934;52.752;6.964;2023-10-09T06:24:38;84.07;;;45.67;;
39218;SDS011;24934;52.752;6.964;2023-10-09T06:27:19;78.22;;;45.17;;
39218;SDS011;24934;52.752;6.964;2023-10-09T06:29:57;77.40;;;44.97;;
39218;SDS011;24934;52.752;6.964;2023-10-09T06:32:48;76.47;;;43.25;;
39218;SDS011;24934;52.752;6.964;2023-10-09T06:35:23;78.13;;;43.88;;
39218;SDS011;24934;52.752;6.964;2023-10-09T06:38:12;75.78;;;42.67;;
39218;SDS011;24934;52.752;6.964;2023-10-09T06:40:49;73.28;;;43.58;;
39218;SDS011;24934;52.752;6.964;2023-10-09T06:43:47;76.72;;;41.28;;
39218;SDS011;24934;52.752;6.964;2023-10-09T06:46:18;77.72;;;43.33;;
39218;SDS011;24934;52.752;6.964;2023-10-09T06:48:47;71.07;;;41.78;;
39218;SDS011;24934;52.752;6.964;2023-10-09T06:51:26;69.47;;;39.95;;
39218;SDS011;24934;52.752;6.964;2023-10-09T06:53:52;67.78;;;39.53;;
39218;SDS011;24934;52.752;6.964;2023-10-09T06:56:25;66.22;;;39.72;;
39218;SDS011;24934;52.752;6.964;2023-10-09T06:58:55;70.88;;;39.50;;
39218;SDS011;24934;52.752;6.964;2023-10-09T07:01:22;64.15;;;38.28;;
39218;SDS011;24934;52.752;6.964;2023-10-09T07:03:57;58.35;;;36.85;;
39218;SDS011;24934;52.752;6.964;2023-10-09T07:06:35;59.72;;;36.38;;
39218;SDS011;24934;52.752;6.964;2023-10-09T07:09:02;59.33;;;35.65;;
39218;SDS011;24934;52.752;6.964;2023-10-09T07:11:40;59.70;;;34.95;;
39218;SDS011;24934;52.752;6.964;2023-10-09T07:16:52;54.55;;;32.90;;
39218;SDS011;24934;52.752;6.964;2023-10-09T07:19:39;48.03;;;32.70;;
39218;SDS011;24934;52.752;6.964;2023-10-09T07:22:05;53.13;;;32.90;;
39218;SDS011;24934;52.752;6.964;2023-10-09T07:25:03;51.75;;;31.50;;
39218;SDS011;24934;52.752;6.964;2023-10-09T07:27:52;49.60;;;31.42;;
39218;SDS011;24934;52.752;6.964;2023-10-09T07:30:20;46.83;;;30.70;;
39218;SDS011;24934;52.752;6.964;2023-10-09T07:33:00;48.50;;;31.30;;
39218;SDS011;24934;52.752;6.964;2023-10-09T07:35:36;42.58;;;29.95;;
39218;SDS011;24934;52.752;6.964;2023-10-09T07:38:09;49.72;;;29.70;;
39218;SDS011;24934;52.752;6.964;2023-10-09T07:40:38;42.53;;;29.13;;
39218;SDS011;24934;52.752;6.964;2023-10-09T07:43:21;42.95;;;28.30;;
39218;SDS011;24934;52.752;6.964;2023-10-09T07:45:54;41.50;;;27.13;;
39218;SDS011;24934;52.752;6.964;2023-10-09T07:48:24;42.80;;;27.77;;
39218;SDS011;24934;52.752;6.964;2023-10-09T07:51:03;45.45;;;27.20;;
39218;SDS011;24934;52.752;6.964;2023-10-09T07:53:30;39.03;;;25.65;;
39218;SDS011;24934;52.752;6.964;2023-10-09T07:56:08;38.90;;;26.08;;
39218;SDS011;24934;52.752;6.964;2023-10-09T07:58:34;41.75;;;26.58;;
39218;SDS011;24934;52.752;6.964;2023-10-09T08:01:13;35.88;;;24.88;;
39218;SDS011;24934;52.752;6.964;2023-10-09T08:04:00;36.70;;;26.00;;
39218;SDS011;24934;52.752;6.964;2023-10-09T08:06:45;38.95;;;24.10;;
39218;SDS011;24934;52.752;6.964;2023-10-09T08:09:12;40.20;;;25.60;;
39218;SDS011;24934;52.752;6.964;2023-10-09T08:11:45;35.92;;;25.27;;
39218;SDS011;24934;52.752;6.964;2023-10-09T08:14:11;36.40;;;24.48;;
39218;SDS011;24934;52.752;6.964;2023-10-09T08:17:13;36.00;;;24.85;;
39218;SDS011;24934;52.752;6.964;2023-10-09T08:22:36;40.00;;;26.95;;
39218;SDS011;24934;52.752;6.964;2023-10-09T08:25:12;40.45;;;25.38;;
39218;SDS011;24934;52.752;6.964;2023-10-09T08:27:57;35.75;;;23.83;;
39218;SDS011;24934;52.752;6.964;2023-10-09T08:30:44;35.85;;;24.27;;
39218;SDS011;24934;52.752;6.964;2023-10-09T08:33:28;34.80;;;24.73;;
39218;SDS011;24934;52.752;6.964;2023-10-09T08:36:06;37.97;;;24.45;;
39218;SDS011;24934;52.752;6.964;2023-10-09T08:38:34;36.17;;;23.73;;
39218;SDS011;24934;52.752;6.964;2023-10-09T08:41:07;36.65;;;24.95;;
39218;SDS011;24934;52.752;6.964;2023-10-09T08:43:41;34.67;;;24.60;;
39218;SDS011;24934;52.752;6.964;2023-10-09T08:46:11;42.00;;;25.95;;
39218;SDS011;24934;52.752;6.964;2023-10-09T08:48:43;37.15;;;25.20;;
39218;SDS011;24934;52.752;6.964;2023-10-09T08:51:09;34.90;;;25.95;;
39218;SDS011;24934;52.752;6.964;2023-10-09T08:53:35;36.03;;;24.83;;
39218;SDS011;24934;52.752;6.964;2023-10-09T08:56:07;36.22;;;24.58;;
39218;SDS011;24934;52.752;6.964;2023-10-09T08:58:39;36.20;;;23.90;;
39218;SDS011;24934;52.752;6.964;2023-10-09T09:01:05;36.17;;;23.17;;
39218;SDS011;24934;52.752;6.964;2023-10-09T09:03:37;37.13;;;23.23;;
39218;SDS011;24934;52.752;6.964;2023-10-09T09:06:04;36.90;;;23.60;;
39218;SDS011;24934;52.752;6.964;2023-10-09T09:08:31;36.25;;;23.38;;
39218;SDS011;24934;52.752;6.964;2023-10-09T09:14:04;35.78;;;25.00;;
39218;SDS011;24934;52.752;6.964;2023-10-09T09:16:43;37.30;;;26.10;;
39218;SDS011;24934;52.752;6.964;2023-10-09T09:19:13;36.50;;;25.67;;
39218;SDS011;24934;52.752;6.964;2023-10-09T09:21:56;36.92;;;25.38;;
39218;SDS011;24934;52.752;6.964;2023-10-09T09:24:24;37.08;;;25.60;;
39218;SDS011;24934;52.752;6.964;2023-10-09T09:26:53;31.60;;;25.23;;
39218;SDS011;24934;52.752;6.964;2023-10-09T09:32:04;36.33;;;25.42;;
39218;SDS011;24934;52.752;6.964;2023-10-09T09:34:49;37.28;;;26.00;;
39218;SDS011;24934;52.752;6.964;2023-10-09T09:37:26;37.60;;;25.90;;
39218;SDS011;24934;52.752;6.964;2023-10-09T09:40:00;34.33;;;24.45;;
39218;SDS011;24934;52.752;6.964;2023-10-09T09:42:36;41.85;;;25.95;;
39218;SDS011;24934;52.752;6.964;2023-10-09T09:45:02;36.72;;;25.80;;
39218;SDS011;24934;52.752;6.964;2023-10-09T09:47:30;34.83;;;25.85;;
39218;SDS011;24934;52.752;6.964;2023-10-09T09:50:00;38.53;;;26.40;;
39218;SDS011;24934;52.752;6.964;2023-10-09T09:52:36;32.03;;;26.00;;
39218;SDS011;24934;52.752;6.964;2023-10-09T09:55:10;40.63;;;27.05;;
39218;SDS011;24934;52.752;6.964;2023-10-09T09:57:47;39.20;;;28.08;;
39218;SDS011;24934;52.752;6.964;2023-10-09T10:00:16;40.63;;;27.13;;
39218;SDS011;24934;52.752;6.964;2023-10-09T10:03:00;41.72;;;27.58;;
39218;SDS011;24934;52.752;6.964;2023-10-09T10:05:30;38.50;;;27.35;;
39218;SDS011;24934;52.752;6.964;2023-10-09T10:07:58;37.90;;;27.55;;
39218;SDS011;24934;52.752;6.964;2023-10-09T10:10:39;31.45;;;27.30;;
39218;SDS011;24934;52.752;6.964;2023-10-09T10:16:05;40.08;;;28.40;;
39218;SDS011;24934;52.752;6.964;2023-10-09T10:21:25;34.53;;;27.67;;
39218;SDS011;24934;52.752;6.964;2023-10-09T10:23:57;40.97;;;28.17;;
39218;SDS011;24934;52.752;6.964;2023-10-09T10:26:31;43.28;;;26.52;;
39218;SDS011;24934;52.752;6.964;2023-10-09T10:31:59;43.25;;;25.80;;
39218;SDS011;24934;52.752;6.964;2023-10-09T10:34:26;37.20;;;26.42;;
39218;SDS011;24934;52.752;6.964;2023-10-09T10:36:53;38.92;;;26.77;;
39218;SDS011;24934;52.752;6.964;2023-10-09T10:39:25;35.50;;;26.38;;
39218;SDS011;24934;52.752;6.964;2023-10-09T10:42:14;42.10;;;26.38;;
39218;SDS011;24934;52.752;6.964;2023-10-09T10:44:59;35.10;;;25.95;;
39218;SDS011;24934;52.752;6.964;2023-10-09T10:47:27;32.00;;;24.88;;
39218;SDS011;24934;52.752;6.964;2023-10-09T10:50:03;37.00;;;25.65;;
39218;SDS011;24934;52.752;6.964;2023-10-09T10:53:13;32.33;;;25.02;;
39218;SDS011;24934;52.752;6.964;2023-10-09T10:55:53;37.17;;;24.80;;
39218;SDS011;24934;52.752;6.964;2023-10-09T10:58:21;32.30;;;24.83;;
39218;SDS011;24934;52.752;6.964;2023-10-09T11:01:00;35.30;;;24.83;;
39218;SDS011;24934;52.752;6.964;2023-10-09T11:03:39;36.08;;;26.33;;
39218;SDS011;24934;52.752;6.964;2023-10-09T11:06:34;37.15;;;25.83;;
39218;SDS011;24934;52.752;6.964;2023-10-09T11:09:07;38.00;;;25.33;;
39218;SDS011;24934;52.752;6.964;2023-10-09T11:12:03;33.67;;;24.33;;
39218;SDS011;24934;52.752;6.964;2023-10-09T11:14:46;35.95;;;26.00;;
39218;SDS011;24934;52.752;6.964;2023-10-09T11:17:32;35.10;;;24.27;;
39218;SDS011;24934;52.752;6.964;2023-10-09T11:20:00;37.05;;;25.00;;
39218;SDS011;24934;52.752;6.964;2023-10-09T11:22:46;35.33;;;24.17;;
39218;SDS011;24934;52.752;6.964;2023-10-09T11:25:39;29.95;;;23.88;;
39218;SDS011;24934;52.752;6.964;2023-10-09T11:28:18;29.63;;;24.17;;
39218;SDS011;24934;52.752;6.964;2023-10-09T11:31:13;32.03;;;24.73;;
39218;SDS011;24934;52.752;6.964;2023-10-09T11:33:48;33.38;;;23.88;;
39218;SDS011;24934;52.752;6.964;2023-10-09T11:36:16;34.78;;;24.45;;
39218;SDS011;24934;52.752;6.964;2023-10-09T11:38:46;36.33;;;24.40;;
39218;SDS011;24934;52.752;6.964;2023-10-09T11:41:18;32.42;;;24.75;;
39218;SDS011;24934;52.752;6.964;2023-10-09T11:43:52;30.88;;;24.48;;
39218;SDS011;24934;52.752;6.964;2023-10-09T11:46:22;30.52;;;23.98;;
39218;SDS011;24934;52.752;6.964;2023-10-09T11:49:13;30.15;;;24.15;;
39218;SDS011;24934;52.752;6.964;2023-10-09T11:52:06;38.47;;;24.75;;
39218;SDS011;24934;52.752;6.964;2023-10-09T11:54:51;34.60;;;24.40;;
39218;SDS011;24934;52.752;6.964;2023-10-09T11:57:21;31.92;;;24.30;;
39218;SDS011;24934;52.752;6.964;2023-10-09T11:59:55;32.22;;;23.95;;
39218;SDS011;24934;52.752;6.964;2023-10-09T12:02:21;30.73;;;23.65;;
39218;SDS011;24934;52.752;6.964;2023-10-09T12:04:47;31.38;;;24.17;;
39218;SDS011;24934;52.752;6.964;2023-10-09T12:07:15;34.85;;;23.77;;
39218;SDS011;24934;52.752;6.964;2023-10-09T12:09:41;31.67;;;23.58;;
39218;SDS011;24934;52.752;6.964;2023-10-09T12:12:07;29.45;;;23.10;;
39218;SDS011;24934;52.752;6.964;2023-10-09T12:14:37;32.85;;;22.98;;
39218;SDS011;24934;52.752;6.964;2023-10-09T12:17:08;34.08;;;23.95;;
39218;SDS011;24934;52.752;6.964;2023-10-09T12:19:35;27.75;;;22.48;;
39218;SDS011;24934;52.752;6.964;2023-10-09T12:22:05;29.58;;;22.83;;
39218;SDS011;24934;52.752;6.964;2023-10-09T12:24:32;33.38;;;22.77;;
39218;SDS011;24934;52.752;6.964;2023-10-09T12:26:58;31.05;;;22.48;;
39218;SDS011;24934;52.752;6.964;2023-10-09T12:29:24;26.83;;;21.63;;
39218;SDS011;24934;52.752;6.964;2023-10-09T12:31:55;27.13;;;21.52;;
39218;SDS011;24934;52.752;6.964;2023-10-09T12:34:26;30.52;;;21.88;;
39218;SDS011;24934;52.752;6.964;2023-10-09T12:36:53;32.17;;;21.13;;
39218;SDS011;24934;52.752;6.964;2023-10-09T12:39:20;23.65;;;20.60;;
39218;SDS011;24934;52.752;6.964;2023-10-09T12:41:46;29.45;;;20.80;;
39218;SDS011;24934;52.752;6.964;2023-10-09T12:44:13;27.10;;;20.73;;
39218;SDS011;24934;52.752;6.964;2023-10-09T12:46:44;23.25;;;19.58;;
39218;SDS011;24934;52.752;6.964;2023-10-09T12:49:22;24.80;;;19.27;;
39218;SDS011;24934;52.752;6.964;2023-10-09T12:51:54;22.15;;;18.75;;
39218;SDS011;24934;52.752;6.964;2023-10-09T12:54:21;19.83;;;17.73;;
39218;SDS011;24934;52.752;6.964;2023-10-09T12:56:52;22.35;;;17.80;;
39218;SDS011;24934;52.752;6.964;2023-10-09T12:59:18;25.92;;;18.15;;
39218;SDS011;24934;52.752;6.964;2023-10-09T13:01:45;19.83;;;17.17;;
39218;SDS011;24934;52.752;6.964;2023-10-09T13:04:17;26.67;;;18.60;;
39218;SDS011;24934;52.752;6.964;2023-10-09T13:06:46;22.50;;;18.88;;
39218;SDS011;24934;52.752;6.964;2023-10-09T13:09:13;23.92;;;17.85;;
39218;SDS011;24934;52.752;6.964;2023-10-09T13:11:40;20.27;;;18.05;;
39218;SDS011;24934;52.752;6.964;2023-10-09T13:14:08;20.20;;;18.00;;
39218;SDS011;24934;52.752;6.964;2023-10-09T13:16:47;23.48;;;19.27;;
39218;SDS011;24934;52.752;6.964;2023-10-09T13:19:17;21.20;;;17.75;;
39218;SDS011;24934;52.752;6.964;2023-10-09T13:21:43;19.92;;;17.65;;
39218;SDS011;24934;52.752;6.964;2023-10-09T13:24:10;20.73;;;17.27;;
39218;SDS011;24934;52.752;6.964;2023-10-09T13:26:44;19.85;;;17.10;;
39218;SDS011;24934;52.752;6.964;2023-10-09T13:29:13;19.95;;;16.75;;
39218;SDS011;24934;52.752;6.964;2023-10-09T13:31:47;20.15;;;17.02;;
39218;SDS011;24934;52.752;6.964;2023-10-09T13:34:14;21.25;;;17.48;;
39218;SDS011;24934;52.752;6.964;2023-10-09T13:36:40;21.33;;;17.00;;
39218;SDS011;24934;52.752;6.964;2023-10-09T13:39:15;20.92;;;17.23;;
39218;SDS011;24934;52.752;6.964;2023-10-09T13:41:47;19.50;;;17.50;;
39218;SDS011;24934;52.752;6.964;2023-10-09T13:44:14;18.60;;;16.70;;
39218;SDS011;24934;52.752;6.964;2023-10-09T13:46:43;22.42;;;17.63;;
39218;SDS011;24934;52.752;6.964;2023-10-09T13:49:09;24.52;;;16.67;;
39218;SDS011;24934;52.752;6.964;2023-10-09T13:51:39;22.02;;;17.13;;
39218;SDS011;24934;52.752;6.964;2023-10-09T13:54:11;18.90;;;15.73;;
39218;SDS011;24934;52.752;6.964;2023-10-09T13:56:49;18.65;;;16.35;;
39218;SDS011;24934;52.752;6.964;2023-10-09T13:59:18;17.60;;;15.80;;
39218;SDS011;24934;52.752;6.964;2023-10-09T14:01:46;18.25;;;16.20;;
39218;SDS011;24934;52.752;6.964;2023-10-09T14:04:13;18.63;;;16.60;;
39218;SDS011;24934;52.752;6.964;2023-10-09T14:06:45;20.02;;;15.10;;
39218;SDS011;24934;52.752;6.964;2023-10-09T14:09:12;18.60;;;16.60;;
39218;SDS011;24934;52.752;6.964;2023-10-09T14:11:59;19.95;;;16.73;;
39218;SDS011;24934;52.752;6.964;2023-10-09T14:14:35;17.80;;;16.10;;
39218;SDS011;24934;52.752;6.964;2023-10-09T14:17:13;19.20;;;17.13;;
39218;SDS011;24934;52.752;6.964;2023-10-09T14:22:06;18.17;;;16.35;;
39218;SDS011;24934;52.752;6.964;2023-10-09T14:24:32;19.55;;;16.40;;
39218;SDS011;24934;52.752;6.964;2023-10-09T14:27:02;17.50;;;15.77;;
39218;SDS011;24934;52.752;6.964;2023-10-09T14:29:29;17.95;;;15.98;;
39218;SDS011;24934;52.752;6.964;2023-10-09T14:31:55;17.60;;;15.98;;
39218;SDS011;24934;52.752;6.964;2023-10-09T14:34:27;17.58;;;15.95;;
39218;SDS011;24934;52.752;6.964;2023-10-09T14:37:01;19.05;;;15.82;;
39218;SDS011;24934;52.752;6.964;2023-10-09T14:39:28;17.35;;;15.70;;
39218;SDS011;24934;52.752;6.964;2023-10-09T14:42:01;19.35;;;16.20;;
39218;SDS011;24934;52.752;6.964;2023-10-09T14:44:31;17.63;;;15.80;;
39218;SDS011;24934;52.752;6.964;2023-10-09T14:47:02;18.08;;;15.65;;
39218;SDS011;24934;52.752;6.964;2023-10-09T14:49:30;16.52;;;14.80;;
39218;SDS011;24934;52.752;6.964;2023-10-09T14:52:02;18.60;;;14.77;;
39218;SDS011;24934;52.752;6.964;2023-10-09T14:54:28;21.23;;;15.50;;
39218;SDS011;24934;52.752;6.964;2023-10-09T14:56:59;15.25;;;13.80;;
39218;SDS011;24934;52.752;6.964;2023-10-09T14:59:25;19.15;;;15.05;;
39218;SDS011;24934;52.752;6.964;2023-10-09T15:01:51;21.17;;;14.10;;
39218;SDS011;24934;52.752;6.964;2023-10-09T15:04:20;15.93;;;14.23;;
39218;SDS011;24934;52.752;6.964;2023-10-09T15:06:50;15.88;;;14.23;;
39218;SDS011;24934;52.752;6.964;2023-10-09T15:09:16;20.08;;;15.23;;
39218;SDS011;24934;52.752;6.964;2023-10-09T15:11:53;17.75;;;14.02;;
39218;SDS011;24934;52.752;6.964;2023-10-09T15:14:19;20.90;;;14.75;;
39218;SDS011;24934;52.752;6.964;2023-10-09T15:16:45;19.15;;;14.88;;
39218;SDS011;24934;52.752;6.964;2023-10-09T15:19:14;17.63;;;14.25;;
39218;SDS011;24934;52.752;6.964;2023-10-09T15:21:41;15.77;;;12.93;;
39218;SDS011;24934;52.752;6.964;2023-10-09T15:24:14;17.70;;;15.15;;